Harbor Emperor — WCY6430 — position and weather

sailwx.info

Track history (hours):
 
Tides and Currents Weather Stations Pressure Air Temp Water Temp Dewpoint Dewpoint Depression Visibility Wind Speed Wind Dir Waves Ship Positions

Harbor Emperor

Owner: BLUE & GOLD FLEET, SAN FRANCISCO, CA. More information available from US FCC via Universal Licensing System and Coast Guard Vessel Documentation Center.

Last reported at 2018-Jun-21 02:29 UTC. Time now 2018-Jun-21 02:44 UTC.
Position N 37°48' W 122°24'.

Length 31 m.

Type: Passenger vessel. MMSI: 366985270.

Date/timePositionNaut miles runAvg speedWind from/ knotsBaromVisibWave heightAir tempDewpointWater temp
2018-Jun-21 02:29N 37°48' W 122°24'0 0.0
2018-Jun-21 01:59N 37°48' W 122°24'0 0.0
2018-Jun-21 01:26N 37°48' W 122°24'0 0.0
2018-Jun-21 00:56N 37°48' W 122°24'0 0.0
2018-Jun-21 00:29N 37°48' W 122°24'0 0.0
2018-Jun-20 23:59N 37°48' W 122°24'0 0.0
2018-Jun-20 23:29N 37°48' W 122°24'0 0.0
2018-Jun-20 22:53N 37°48' W 122°24'0 0.0
2018-Jun-20 22:29N 37°48' W 122°24'0 0.0
2018-Jun-20 21:59N 37°48' W 122°24'0 0.0
2018-Jun-20 21:29N 37°48' W 122°24'0 0.0
2018-Jun-20 21:00N 37°48' W 122°24'0 0.0
2018-Jun-20 20:30N 37°48' W 122°24'0 0.0
2018-Jun-20 20:00N 37°48' W 122°24'0 0.0
2018-Jun-20 19:30N 37°48' W 122°24'0 0.0
2018-Jun-20 19:00N 37°48' W 122°24'0 0.0
2018-Jun-20 18:30N 37°48' W 122°24'0 0.0
2018-Jun-20 18:00N 37°48' W 122°24'0 0.0
2018-Jun-20 17:30N 37°48' W 122°24'0 0.0
2018-Jun-20 16:55N 37°48' W 122°24'0 0.0
2018-Jun-20 16:28N 37°48' W 122°24'0 0.0
2018-Jun-20 15:58N 37°48' W 122°24'0 0.0
2018-Jun-20 15:22N 37°48' W 122°24'0 0.0
2018-Jun-20 14:55N 37°48' W 122°24'0 0.0
2018-Jun-20 14:28N 37°48' W 122°24'0 0.0
2018-Jun-20 13:58N 37°48' W 122°24'0 0.0
2018-Jun-20 13:28N 37°48' W 122°24'0 0.0
2018-Jun-20 12:59N 37°48' W 122°24'  
2018-Jun-18 03:03N 37°49' W 122°25'0 0.1
2018-Jun-18 03:00N 37°49' W 122°25'3 5.2
2018-Jun-18 02:30N 37°49' W 122°28'3 4.9
2018-Jun-18 01:59N 37°49' W 122°25'0 0.0
2018-Jun-18 01:26N 37°49' W 122°25'3 6.4
2018-Jun-18 01:01N 37°49' W 122°28'3 5.2
2018-Jun-18 00:30N 37°49' W 122°25'1 1.8
2018-Jun-18 00:00N 37°49' W 122°25'1 2.2
2018-Jun-17 23:30N 37°49' W 122°26'1 3.0
2018-Jun-17 23:00N 37°49' W 122°25'0 0.0
2018-Jun-17 22:30N 37°49' W 122°25'1 1.1
2018-Jun-17 22:00N 37°49' W 122°24'1 2.9
2018-Jun-17 21:30N 37°50' W 122°25'1 2.0
2018-Jun-17 21:00N 37°49' W 122°26'1 2.4
2018-Jun-17 20:29N 37°49' W 122°25'0 0.0
2018-Jun-17 19:59N 37°49' W 122°25'3 5.8
2018-Jun-17 19:30N 37°49' W 122°28'3 5.2
2018-Jun-17 18:58N 37°49' W 122°25'1 2.1
2018-Jun-17 18:31N 37°50' W 122°25'1 2.4
2018-Jun-17 18:01N 37°49' W 122°26'1 0.1
2018-Jun-17 05:04N 37°49' W 122°25'0 0.0
2018-Jun-17 04:56N 37°49' W 122°25'2 3.7
2018-Jun-17 04:31N 37°48' W 122°23'4 7.6
2018-Jun-17 04:00N 37°50' W 122°26'2 4.8
2018-Jun-17 03:31N 37°49' W 122°29'3 6.5
2018-Jun-17 03:00N 37°49' W 122°25'0 0.0
2018-Jun-17 02:30N 37°49' W 122°25'2 4.5
2018-Jun-17 02:00N 37°49' W 122°27'2 4.2
2018-Jun-17 01:29N 37°49' W 122°25'0 0.0
2018-Jun-17 00:59N 37°49' W 122°25'0 0.0
2018-Jun-17 00:29N 37°49' W 122°25'0 0.8
2018-Jun-17 00:00N 37°49' W 122°24'1 2.6
2018-Jun-16 23:30N 37°50' W 122°26'1 2.1
2018-Jun-16 23:00N 37°49' W 122°27'2 3.4
2018-Jun-16 22:29N 37°49' W 122°25'3 6.6
2018-Jun-16 22:00N 37°49' W 122°28'3 6.1
2018-Jun-16 21:30N 37°49' W 122°25'0 0.0
2018-Jun-16 21:00N 37°49' W 122°25'0 0.0
2018-Jun-16 20:30N 37°49' W 122°25'3 6.0
2018-Jun-16 20:00N 37°49' W 122°28'3 5.6
2018-Jun-16 19:29N 37°49' W 122°25'0 0.0
2018-Jun-16 18:59N 37°49' W 122°25'0 0.0
2018-Jun-16 18:29N 37°49' W 122°25'0 0.0
2018-Jun-16 02:58N 37°49' W 122°25'3 5.4
2018-Jun-16 02:30N 37°49' W 122°28'3 5.0
2018-Jun-16 02:00N 37°49' W 122°25'0 0.0
2018-Jun-16 01:31N 37°49' W 122°25'3 5.5
2018-Jun-16 01:01N 37°49' W 122°28'3 5.4
2018-Jun-16 00:30N 37°49' W 122°25'1 2.5
2018-Jun-16 00:00N 37°50' W 122°25'1 3.0
2018-Jun-15 23:30N 37°49' W 122°27'2 3.5
2018-Jun-15 22:59N 37°49' W 122°25'0 0.0
2018-Jun-15 22:28N 37°49' W 122°25'1 2.1
2018-Jun-15 22:00N 37°48' W 122°23'2 4.2
2018-Jun-15 21:30N 37°50' W 122°25'1 2.3
2018-Jun-15 21:00N 37°49' W 122°26'2 2.9
2018-Jun-15 20:29N 37°49' W 122°25'0 0.6
2018-Jun-15 20:00N 37°49' W 122°24'3 5.5
2018-Jun-15 19:31N 37°49' W 122°28'3 4.9
2018-Jun-15 18:59N 37°49' W 122°25'3 5.3
2018-Jun-15 18:30N 37°50' W 122°28'3 4.6
2018-Jun-15 17:58N 37°49' W 122°25'0 0.0
2018-Jun-14 23:18N 37°49' W 122°25'0 0.2
2018-Jun-14 23:00N 37°49' W 122°25'0 0.1
2018-Jun-14 22:29N 37°49' W 122°25'0 0.0
2018-Jun-14 21:59N 37°49' W 122°25'0 0.0
2018-Jun-14 21:29N 37°49' W 122°25'0 0.0
2018-Jun-14 20:59N 37°49' W 122°25'0 0.0
2018-Jun-14 20:29N 37°49' W 122°25'0 0.0
2018-Jun-14 19:59N 37°49' W 122°25'0 0.0
2018-Jun-14 19:29N 37°49' W 122°25'0 0.0
2018-Jun-14 18:59N 37°49' W 122°25'0 0.0
2018-Jun-14 18:29N 37°49' W 122°25'0 0.0
2018-Jun-14 17:59N 37°49' W 122°25'0 0.0
2018-Jun-14 17:26N 37°49' W 122°25'0 0.0
2018-Jun-14 16:59N 37°49' W 122°25'0 0.0
2018-Jun-14 16:29N 37°49' W 122°25'0 0.0
2018-Jun-14 15:59N 37°49' W 122°25'0 0.0
2018-Jun-14 15:29N 37°49' W 122°25'0 0.0
2018-Jun-14 14:59N 37°49' W 122°25'0 0.0
2018-Jun-14 14:29N 37°49' W 122°25'0 0.0
2018-Jun-14 13:59N 37°49' W 122°25'0 0.0
2018-Jun-14 13:29N 37°49' W 122°25'0 0.0
2018-Jun-14 12:59N 37°49' W 122°25'0 0.0
2018-Jun-14 12:26N 37°49' W 122°25'0 0.0
2018-Jun-14 11:56N 37°49' W 122°25'0 0.0
2018-Jun-14 11:29N 37°49' W 122°25'0 0.0
2018-Jun-14 10:59N 37°49' W 122°25'0 0.0
2018-Jun-14 10:29N 37°49' W 122°25'0 0.0
2018-Jun-14 09:59N 37°49' W 122°25'0 0.0
2018-Jun-14 09:29N 37°49' W 122°25'0 0.0
2018-Jun-14 08:59N 37°49' W 122°25'0 0.0
2018-Jun-14 08:29N 37°49' W 122°25'0 0.0
2018-Jun-14 07:59N 37°49' W 122°25'0 0.0
2018-Jun-14 07:29N 37°49' W 122°25'0 0.0
2018-Jun-14 06:59N 37°49' W 122°25'0 0.0
2018-Jun-14 06:29N 37°49' W 122°25'0 0.0
2018-Jun-14 05:59N 37°49' W 122°25'0 0.0
2018-Jun-14 05:29N 37°49' W 122°25'0 0.0
2018-Jun-14 04:59N 37°49' W 122°25'0 0.0
2018-Jun-14 04:29N 37°49' W 122°25'0 0.0
2018-Jun-14 03:59N 37°49' W 122°25'0 0.0
2018-Jun-14 03:29N 37°49' W 122°25'0 0.0
2018-Jun-14 02:56N 37°49' W 122°25'0 0.0
2018-Jun-14 02:29N 37°49' W 122°25'0 0.0
2018-Jun-14 01:59N 37°49' W 122°25'0 0.0
2018-Jun-14 01:29N 37°49' W 122°25'0 0.0
2018-Jun-14 00:59N 37°49' W 122°25'0 0.0
2018-Jun-14 00:29N 37°49' W 122°25'0 0.0
2018-Jun-13 23:59N 37°49' W 122°25'0 0.0
2018-Jun-13 23:29N 37°49' W 122°25'0 0.0
2018-Jun-13 22:59N 37°49' W 122°25'0 0.0
2018-Jun-13 22:29N 37°49' W 122°25'1 3.1
2018-Jun-13 22:00N 37°49' W 122°26'  
Track history (hours):
 
Tides and Currents Weather Stations Pressure Air Temp Water Temp Dewpoint Dewpoint Depression Visibility Wind Speed Wind Dir Waves Ship Positions

Harbor Emperor

Owner: BLUE & GOLD FLEET, SAN FRANCISCO, CA. More information available from US FCC via Universal Licensing System and Coast Guard Vessel Documentation Center.

Last reported at 2018-Jun-21 02:29 UTC. Time now 2018-Jun-21 02:44 UTC.
Position N 37°48' W 122°24'.

Length 31 m.

Type: Passenger vessel. MMSI: 366985270.

Date/timePositionNaut miles runAvg speedWind from/ knotsBaromVisibWave heightAir tempDewpointWater temp
2018-Jun-21 02:29N 37°48' W 122°24'0 0.0
2018-Jun-21 01:59N 37°48' W 122°24'0 0.0
2018-Jun-21 01:26N 37°48' W 122°24'0 0.0
2018-Jun-21 00:56N 37°48' W 122°24'0 0.0
2018-Jun-21 00:29N 37°48' W 122°24'0 0.0
2018-Jun-20 23:59N 37°48' W 122°24'0 0.0
2018-Jun-20 23:29N 37°48' W 122°24'0 0.0
2018-Jun-20 22:53N 37°48' W 122°24'0 0.0
2018-Jun-20 22:29N 37°48' W 122°24'0 0.0
2018-Jun-20 21:59N 37°48' W 122°24'0 0.0
2018-Jun-20 21:29N 37°48' W 122°24'0 0.0
2018-Jun-20 21:00N 37°48' W 122°24'0 0.0
2018-Jun-20 20:30N 37°48' W 122°24'0 0.0
2018-Jun-20 20:00N 37°48' W 122°24'0 0.0
2018-Jun-20 19:30N 37°48' W 122°24'0 0.0
2018-Jun-20 19:00N 37°48' W 122°24'0 0.0
2018-Jun-20 18:30N 37°48' W 122°24'0 0.0
2018-Jun-20 18:00N 37°48' W 122°24'0 0.0
2018-Jun-20 17:30N 37°48' W 122°24'0 0.0
2018-Jun-20 16:55N 37°48' W 122°24'0 0.0
2018-Jun-20 16:28N 37°48' W 122°24'0 0.0
2018-Jun-20 15:58N 37°48' W 122°24'0 0.0
2018-Jun-20 15:22N 37°48' W 122°24'0 0.0
2018-Jun-20 14:55N 37°48' W 122°24'0 0.0
2018-Jun-20 14:28N 37°48' W 122°24'0 0.0
2018-Jun-20 13:58N 37°48' W 122°24'0 0.0
2018-Jun-20 13:28N 37°48' W 122°24'0 0.0
2018-Jun-20 12:59N 37°48' W 122°24'  
2018-Jun-18 03:03N 37°49' W 122°25'0 0.1
2018-Jun-18 03:00N 37°49' W 122°25'3 5.2
2018-Jun-18 02:30N 37°49' W 122°28'3 4.9
2018-Jun-18 01:59N 37°49' W 122°25'0 0.0
2018-Jun-18 01:26N 37°49' W 122°25'3 6.4
2018-Jun-18 01:01N 37°49' W 122°28'3 5.2
2018-Jun-18 00:30N 37°49' W 122°25'1 1.8
2018-Jun-18 00:00N 37°49' W 122°25'1 2.2
2018-Jun-17 23:30N 37°49' W 122°26'1 3.0
2018-Jun-17 23:00N 37°49' W 122°25'0 0.0
2018-Jun-17 22:30N 37°49' W 122°25'1 1.1
2018-Jun-17 22:00N 37°49' W 122°24'1 2.9
2018-Jun-17 21:30N 37°50' W 122°25'1 2.0
2018-Jun-17 21:00N 37°49' W 122°26'1 2.4
2018-Jun-17 20:29N 37°49' W 122°25'0 0.0
2018-Jun-17 19:59N 37°49' W 122°25'3 5.8
2018-Jun-17 19:30N 37°49' W 122°28'3 5.2
2018-Jun-17 18:58N 37°49' W 122°25'1 2.1
2018-Jun-17 18:31N 37°50' W 122°25'1 2.4
2018-Jun-17 18:01N 37°49' W 122°26'1 0.1
2018-Jun-17 05:04N 37°49' W 122°25'0 0.0
2018-Jun-17 04:56N 37°49' W 122°25'2 3.7
2018-Jun-17 04:31N 37°48' W 122°23'4 7.6
2018-Jun-17 04:00N 37°50' W 122°26'2 4.8
2018-Jun-17 03:31N 37°49' W 122°29'3 6.5
2018-Jun-17 03:00N 37°49' W 122°25'0 0.0
2018-Jun-17 02:30N 37°49' W 122°25'2 4.5
2018-Jun-17 02:00N 37°49' W 122°27'2 4.2
2018-Jun-17 01:29N 37°49' W 122°25'0 0.0
2018-Jun-17 00:59N 37°49' W 122°25'0 0.0
2018-Jun-17 00:29N 37°49' W 122°25'0 0.8
2018-Jun-17 00:00N 37°49' W 122°24'1 2.6
2018-Jun-16 23:30N 37°50' W 122°26'1 2.1
2018-Jun-16 23:00N 37°49' W 122°27'2 3.4
2018-Jun-16 22:29N 37°49' W 122°25'3 6.6
2018-Jun-16 22:00N 37°49' W 122°28'3 6.1
2018-Jun-16 21:30N 37°49' W 122°25'0 0.0
2018-Jun-16 21:00N 37°49' W 122°25'0 0.0
2018-Jun-16 20:30N 37°49' W 122°25'3 6.0
2018-Jun-16 20:00N 37°49' W 122°28'3 5.6
2018-Jun-16 19:29N 37°49' W 122°25'0 0.0
2018-Jun-16 18:59N 37°49' W 122°25'0 0.0
2018-Jun-16 18:29N 37°49' W 122°25'0 0.0
2018-Jun-16 02:58N 37°49' W 122°25'3 5.4
2018-Jun-16 02:30N 37°49' W 122°28'3 5.0
2018-Jun-16 02:00N 37°49' W 122°25'0 0.0
2018-Jun-16 01:31N 37°49' W 122°25'3 5.5
2018-Jun-16 01:01N 37°49' W 122°28'3 5.4
2018-Jun-16 00:30N 37°49' W 122°25'1 2.5
2018-Jun-16 00:00N 37°50' W 122°25'1 3.0
2018-Jun-15 23:30N 37°49' W 122°27'2 3.5
2018-Jun-15 22:59N 37°49' W 122°25'0 0.0
2018-Jun-15 22:28N 37°49' W 122°25'1 2.1
2018-Jun-15 22:00N 37°48' W 122°23'2 4.2
2018-Jun-15 21:30N 37°50' W 122°25'1 2.3
2018-Jun-15 21:00N 37°49' W 122°26'2 2.9
2018-Jun-15 20:29N 37°49' W 122°25'0 0.6
2018-Jun-15 20:00N 37°49' W 122°24'3 5.5
2018-Jun-15 19:31N 37°49' W 122°28'3 4.9
2018-Jun-15 18:59N 37°49' W 122°25'3 5.3
2018-Jun-15 18:30N 37°50' W 122°28'3 4.6
2018-Jun-15 17:58N 37°49' W 122°25'0 0.0
2018-Jun-14 23:18N 37°49' W 122°25'0 0.2
2018-Jun-14 23:00N 37°49' W 122°25'0 0.1
2018-Jun-14 22:29N 37°49' W 122°25'0 0.0
2018-Jun-14 21:59N 37°49' W 122°25'0 0.0
2018-Jun-14 21:29N 37°49' W 122°25'0 0.0
2018-Jun-14 20:59N 37°49' W 122°25'0 0.0
2018-Jun-14 20:29N 37°49' W 122°25'0 0.0
2018-Jun-14 19:59N 37°49' W 122°25'0 0.0
2018-Jun-14 19:29N 37°49' W 122°25'0 0.0
2018-Jun-14 18:59N 37°49' W 122°25'0 0.0
2018-Jun-14 18:29N 37°49' W 122°25'0 0.0
2018-Jun-14 17:59N 37°49' W 122°25'0 0.0
2018-Jun-14 17:26N 37°49' W 122°25'0 0.0
2018-Jun-14 16:59N 37°49' W 122°25'0 0.0
2018-Jun-14 16:29N 37°49' W 122°25'0 0.0
2018-Jun-14 15:59N 37°49' W 122°25'0 0.0
2018-Jun-14 15:29N 37°49' W 122°25'0 0.0
2018-Jun-14 14:59N 37°49' W 122°25'0 0.0
2018-Jun-14 14:29N 37°49' W 122°25'0 0.0
2018-Jun-14 13:59N 37°49' W 122°25'0 0.0
2018-Jun-14 13:29N 37°49' W 122°25'0 0.0
2018-Jun-14 12:59N 37°49' W 122°25'0 0.0
2018-Jun-14 12:26N 37°49' W 122°25'0 0.0
2018-Jun-14 11:56N 37°49' W 122°25'0 0.0
2018-Jun-14 11:29N 37°49' W 122°25'0 0.0
2018-Jun-14 10:59N 37°49' W 122°25'0 0.0
2018-Jun-14 10:29N 37°49' W 122°25'0 0.0
2018-Jun-14 09:59N 37°49' W 122°25'0 0.0
2018-Jun-14 09:29N 37°49' W 122°25'0 0.0
2018-Jun-14 08:59N 37°49' W 122°25'0 0.0
2018-Jun-14 08:29N 37°49' W 122°25'0 0.0
2018-Jun-14 07:59N 37°49' W 122°25'0 0.0
2018-Jun-14 07:29N 37°49' W 122°25'0 0.0
2018-Jun-14 06:59N 37°49' W 122°25'0 0.0
2018-Jun-14 06:29N 37°49' W 122°25'0 0.0
2018-Jun-14 05:59N 37°49' W 122°25'0 0.0
2018-Jun-14 05:29N 37°49' W 122°25'0 0.0
2018-Jun-14 04:59N 37°49' W 122°25'0 0.0
2018-Jun-14 04:29N 37°49' W 122°25'0 0.0
2018-Jun-14 03:59N 37°49' W 122°25'0 0.0
2018-Jun-14 03:29N 37°49' W 122°25'0 0.0
2018-Jun-14 02:56N 37°49' W 122°25'0 0.0
2018-Jun-14 02:29N 37°49' W 122°25'0 0.0
2018-Jun-14 01:59N 37°49' W 122°25'0 0.0
2018-Jun-14 01:29N 37°49' W 122°25'0 0.0
2018-Jun-14 00:59N 37°49' W 122°25'0 0.0
2018-Jun-14 00:29N 37°49' W 122°25'0 0.0
2018-Jun-13 23:59N 37°49' W 122°25'0 0.0
2018-Jun-13 23:29N 37°49' W 122°25'0 0.0
2018-Jun-13 22:59N 37°49' W 122°25'0 0.0
2018-Jun-13 22:29N 37°49' W 122°25'1 3.1
2018-Jun-13 22:00N 37°49' W 122°26'  

Dump ship's entire track history